Two Harbors, Minnesota
Current Conditions -  °F | °C
As of 11:15 AM on Thursday 27 Nov 2014 (Local Time) from KTWM Reporting Station
Clear Clear  
Wind Chill: -1°   Ceiling: Unl
Heat Index:   Visibility: 10mi
Dew Point: -2°   Wind: 6mph
Humidity: 62%   Direction: 310°NW
Pressure: 30.39"   Gusts: NA
Location:  47.02°N, 91.67°W
Report Text: KTWM 271715Z AUTO 31005KT 10SM CLR M13/M19 A3039 RMK AO2
Loading
Personal Weather Stations






























Interactive Weather Map New forecast layout! Learn more

10-Day Weather Forecast

Advertisements
Track Severe Weather on mobile